Terminal Aerodrome Forecast
Issued by NWS Wilmington, NC

Home | Current Version | Previous Version | Text Only | Print | Product List | Glossary On
Versions: 1 2 3 4 5 6 7 8 9 10 11 12 13 14 15 16 17 18
113
FTUS42 KILM 301736
TAFFLO
TAF
KFLO 301736Z 3018/3118 13012KT P6SM BKN035 BKN060
      TEMPO 3018/3022 BKN025
     FM310100 14011KT P6SM VCTS SCT015CB BKN060
     FM310300 15011KT P6SM SCT010 BKN070 PROB30 3103/3108 4SM TSRA
      BKN010CB
     FM310800 16010KT P6SM SHRA VCTS SCT010CB OVC040
     FM311300 19012KT P6SM SHRA VCTS BKN035CB OVC060
     FM311500 21014KT P6SM BKN060 OVC080 PROB30 3115/3118 4SM TSRA
      BKN050CB=

USA.gov is the U.S. government's official web portal to all federal, state and local government web resources and services.